createdAt,value
2017-04-30T00:00:28.401Z,0
2017-04-30T00:01:08.854Z,0
2017-04-30T00:01:49.368Z,0
2017-04-30T00:02:29.855Z,0
2017-04-30T00:03:10.305Z,0
2017-04-30T00:03:50.775Z,0
2017-04-30T00:04:31.267Z,0
2017-04-30T00:05:11.743Z,0
2017-04-30T00:05:52.239Z,0
2017-04-30T00:06:32.714Z,0
2017-04-30T00:07:13.182Z,0
2017-04-30T00:07:53.690Z,0
2017-04-30T00:08:34.170Z,0
2017-04-30T00:09:14.623Z,0
2017-04-30T00:09:55.109Z,0
2017-04-30T00:10:35.583Z,0
2017-04-30T00:11:16.084Z,0
2017-04-30T00:11:56.538Z,0
2017-04-30T00:12:37.054Z,0
2017-04-30T00:13:17.529Z,0
2017-04-30T00:13:58.010Z,0
2017-04-30T00:14:38.516Z,0
2017-04-30T00:15:19.006Z,0
2017-04-30T00:15:59.499Z,0
2017-04-30T00:16:39.960Z,0
2017-04-30T00:17:20.453Z,0
2017-04-30T00:18:00.925Z,0
2017-04-30T00:18:41.404Z,0
2017-04-30T00:19:21.861Z,0
2017-04-30T00:20:02.343Z,0
2017-04-30T00:20:42.826Z,0
2017-04-30T00:21:23.339Z,0
2017-04-30T00:23:52.068Z,0
2017-04-30T00:24:34.078Z,0
2017-04-30T00:25:14.539Z,0
2017-04-30T00:25:55.028Z,0
2017-04-30T00:26:35.472Z,0
2017-04-30T00:27:15.929Z,0
2017-04-30T00:27:56.401Z,0
2017-04-30T00:28:36.856Z,0
2017-04-30T00:29:17.337Z,0
2017-04-30T00:29:57.834Z,0
2017-04-30T00:30:38.338Z,0
2017-04-30T00:31:18.811Z,0
2017-04-30T00:31:59.283Z,0
2017-04-30T00:32:39.735Z,0
2017-04-30T00:33:20.197Z,0
2017-04-30T00:34:00.687Z,0
2017-04-30T00:34:41.172Z,0
2017-04-30T00:35:21.615Z,0
2017-04-30T00:36:02.103Z,0
2017-04-30T00:36:42.575Z,0
2017-04-30T00:37:23.074Z,0
2017-04-30T00:38:03.506Z,0
2017-04-30T00:38:44.001Z,0
2017-04-30T00:39:24.471Z,0
2017-04-30T00:40:04.963Z,0
2017-04-30T00:40:45.445Z,0
2017-04-30T00:41:25.918Z,0
2017-04-30T00:42:06.413Z,0
2017-04-30T00:42:46.862Z,0
2017-04-30T00:43:27.360Z,0
2017-04-30T00:44:07.815Z,0
2017-04-30T00:44:48.281Z,0
2017-04-30T00:45:28.783Z,0
2017-04-30T00:46:09.270Z,0
2017-04-30T00:46:49.735Z,0
2017-04-30T00:47:30.228Z,0
2017-04-30T00:48:10.719Z,0
2017-04-30T00:48:51.167Z,0
2017-04-30T00:49:31.639Z,0
2017-04-30T00:50:12.128Z,0
2017-04-30T00:50:52.616Z,0
2017-04-30T00:51:33.098Z,0
2017-04-30T00:52:13.616Z,0
2017-04-30T00:52:54.076Z,0
2017-04-30T00:53:34.560Z,0
2017-04-30T00:54:15.029Z,0
2017-04-30T00:54:55.494Z,0
2017-04-30T00:55:35.997Z,0
2017-04-30T00:56:16.494Z,0
2017-04-30T00:56:56.950Z,0
2017-04-30T00:57:37.402Z,0
2017-04-30T00:58:17.868Z,0
2017-04-30T00:58:58.351Z,0
2017-04-30T00:59:38.851Z,0
2017-04-30T01:00:19.359Z,0
2017-04-30T01:00:59.845Z,0
2017-04-30T01:01:40.297Z,0
2017-04-30T01:02:20.813Z,0
2017-04-30T01:03:01.294Z,0
2017-04-30T01:03:41.748Z,0
2017-04-30T01:04:22.201Z,0
2017-04-30T01:05:02.713Z,0
2017-04-30T01:05:43.215Z,0
2017-04-30T01:06:23.704Z,0
2017-04-30T01:07:04.199Z,0
2017-04-30T01:07:44.661Z,0
2017-04-30T01:08:25.149Z,0
2017-04-30T01:09:05.622Z,0
2017-04-30T01:09:46.095Z,0
2017-04-30T01:10:26.594Z,0
2017-04-30T01:11:07.092Z,0
2017-04-30T01:11:47.539Z,0
2017-04-30T01:12:28.025Z,0
2017-04-30T01:13:08.556Z,0
2017-04-30T01:13:49.033Z,0
2017-04-30T01:14:29.682Z,0
2017-04-30T01:15:10.183Z,0
2017-04-30T01:15:50.652Z,0
2017-04-30T01:16:31.153Z,0
2017-04-30T01:17:11.642Z,0
2017-04-30T01:17:52.125Z,0
2017-04-30T01:18:32.623Z,0
2017-04-30T01:19:13.087Z,0
2017-04-30T01:19:53.597Z,0
2017-04-30T01:20:34.068Z,0
2017-04-30T01:21:14.578Z,0
2017-04-30T01:21:55.105Z,0
2017-04-30T01:22:35.541Z,0
2017-04-30T01:23:16.057Z,0
2017-04-30T01:23:56.508Z,0
2017-04-30T01:24:36.967Z,0
2017-04-30T01:25:17.446Z,0
2017-04-30T01:25:57.920Z,0
2017-04-30T01:26:38.404Z,0
2017-04-30T01:27:18.881Z,0
2017-04-30T01:27:59.368Z,0
2017-04-30T01:28:39.886Z,0
2017-04-30T01:29:20.341Z,0
2017-04-30T01:30:00.846Z,0
2017-04-30T01:30:41.308Z,0
2017-04-30T01:31:21.768Z,0
2017-04-30T01:32:02.260Z,0
2017-04-30T01:32:42.755Z,0
2017-04-30T01:33:23.193Z,0
2017-04-30T01:34:03.679Z,0
2017-04-30T01:34:44.168Z,0
2017-04-30T01:35:24.664Z,0
2017-04-30T01:36:05.142Z,0
2017-04-30T01:36:45.632Z,0
2017-04-30T01:37:26.127Z,0
2017-04-30T01:38:06.584Z,0
2017-04-30T01:38:47.077Z,0
2017-04-30T01:39:27.548Z,0
2017-04-30T01:40:08.090Z,0
2017-04-30T01:40:48.538Z,0
2017-04-30T01:41:29.038Z,0
2017-04-30T01:42:09.484Z,0
2017-04-30T01:42:50.048Z,0
2017-04-30T01:43:30.526Z,0
2017-04-30T01:44:11.017Z,0
2017-04-30T01:44:51.475Z,0
2017-04-30T01:45:31.961Z,0
2017-04-30T01:46:12.449Z,0
2017-04-30T01:46:52.911Z,0
2017-04-30T01:47:33.420Z,0
2017-04-30T01:48:13.885Z,0
2017-04-30T01:48:54.375Z,0
2017-04-30T01:49:34.839Z,0
2017-04-30T01:50:15.335Z,0
2017-04-30T01:50:55.793Z,0
2017-04-30T01:51:36.267Z,0
2017-04-30T01:52:16.718Z,0
2017-04-30T01:52:57.222Z,0
2017-04-30T01:53:37.717Z,0
2017-04-30T01:54:18.181Z,0
2017-04-30T01:54:58.661Z,0
2017-04-30T01:55:39.159Z,0
2017-04-30T01:56:19.633Z,0
2017-04-30T01:57:00.152Z,0
2017-04-30T01:57:40.640Z,0
2017-04-30T01:58:21.105Z,0
2017-04-30T01:59:01.600Z,0
2017-04-30T01:59:42.119Z,0
2017-04-30T02:00:22.581Z,0
2017-04-30T02:01:03.075Z,0
2017-04-30T02:01:43.542Z,0
2017-04-30T02:02:24.020Z,0
2017-04-30T02:03:04.558Z,0
2017-04-30T02:03:45.005Z,0
2017-04-30T02:04:25.470Z,0
2017-04-30T02:05:05.936Z,0
2017-04-30T02:05:46.427Z,0
2017-04-30T02:06:26.906Z,0
2017-04-30T02:07:07.371Z,0
2017-04-30T02:07:47.838Z,0
2017-04-30T02:08:28.355Z,0
2017-04-30T02:09:08.845Z,0
2017-04-30T02:09:49.332Z,0
2017-04-30T02:10:29.838Z,0
2017-04-30T02:11:10.342Z,0
2017-04-30T02:11:50.812Z,0
2017-04-30T02:12:31.286Z,0
2017-04-30T02:13:11.749Z,0
2017-04-30T02:13:52.223Z,0
2017-04-30T02:14:32.735Z,0
2017-04-30T02:15:13.174Z,0
2017-04-30T02:15:53.663Z,0
2017-04-30T02:16:34.168Z,0
2017-04-30T02:17:14.618Z,0
2017-04-30T02:17:55.130Z,0
2017-04-30T02:18:35.624Z,0
2017-04-30T02:19:16.073Z,0
2017-04-30T02:19:56.547Z,0
2017-04-30T02:20:37.042Z,0
2017-04-30T02:21:17.485Z,0
2017-04-30T02:21:57.951Z,0
2017-04-30T02:22:38.468Z,0
2017-04-30T02:23:18.921Z,0
2017-04-30T02:23:59.373Z,0
2017-04-30T02:24:39.863Z,0
2017-04-30T02:25:20.356Z,0
2017-04-30T02:26:00.851Z,0
2017-04-30T02:26:41.340Z,0
2017-04-30T02:27:21.810Z,0
2017-04-30T02:28:02.299Z,0
2017-04-30T02:28:42.773Z,0
2017-04-30T02:29:23.255Z,0
2017-04-30T02:30:03.755Z,0
2017-04-30T02:30:44.212Z,0
2017-04-30T02:31:24.686Z,0
2017-04-30T02:32:05.158Z,0
2017-04-30T02:32:45.663Z,0
2017-04-30T02:33:26.151Z,0
2017-04-30T02:34:06.659Z,0
2017-04-30T02:34:47.090Z,0
2017-04-30T02:35:27.579Z,0
2017-04-30T02:36:08.075Z,0
2017-04-30T02:36:48.556Z,0
2017-04-30T02:37:29.075Z,0
2017-04-30T02:38:09.547Z,0
2017-04-30T02:40:44.438Z,0
2017-04-30T02:41:25.271Z,0
2017-04-30T02:42:05.750Z,0
2017-04-30T02:42:46.228Z,0
2017-04-30T02:43:26.675Z,0
2017-04-30T02:44:07.148Z,0
2017-04-30T02:44:47.593Z,0
2017-04-30T02:45:28.113Z,0
2017-04-30T02:46:08.640Z,0
2017-04-30T02:46:49.068Z,0
2017-04-30T02:47:29.557Z,0
2017-04-30T02:48:10.022Z,0
2017-04-30T02:48:50.536Z,0
2017-04-30T02:49:31.009Z,0
2017-04-30T02:50:11.473Z,0
2017-04-30T02:50:51.966Z,0
2017-04-30T02:51:32.464Z,0
2017-04-30T02:52:12.925Z,0
2017-04-30T02:52:53.427Z,0
2017-04-30T02:53:33.892Z,0
2017-04-30T02:54:14.370Z,0
2017-04-30T02:54:54.865Z,0
2017-04-30T02:55:35.338Z,0
2017-04-30T02:56:15.812Z,0
2017-04-30T02:56:56.291Z,0
2017-04-30T02:57:36.783Z,0
2017-04-30T02:58:17.230Z,0
2017-04-30T02:58:57.706Z,0
2017-04-30T02:59:38.204Z,0
2017-04-30T03:00:18.671Z,0
2017-04-30T03:00:59.169Z,0
2017-04-30T03:01:39.728Z,0
2017-04-30T03:02:20.149Z,0
2017-04-30T03:03:00.599Z,0
2017-04-30T03:03:41.096Z,0
2017-04-30T03:04:21.600Z,0
2017-04-30T03:05:02.099Z,0
2017-04-30T03:05:42.575Z,0
2017-04-30T03:06:23.040Z,0
2017-04-30T03:07:03.546Z,0
2017-04-30T03:07:44.043Z,0
2017-04-30T03:08:24.520Z,0
2017-04-30T03:09:05.015Z,0
2017-04-30T03:09:45.504Z,4
2017-04-30T03:10:25.953Z,4
2017-04-30T03:11:06.437Z,4
2017-04-30T03:11:46.942Z,4
2017-04-30T03:12:27.441Z,0
2017-04-30T03:13:07.893Z,0
2017-04-30T03:13:48.357Z,4
2017-04-30T03:14:28.852Z,4
2017-04-30T03:15:09.355Z,4
2017-04-30T03:15:49.785Z,4
2017-04-30T03:16:30.240Z,4
2017-04-30T03:17:10.733Z,4
2017-04-30T03:17:51.240Z,4
2017-04-30T03:18:31.696Z,4
2017-04-30T03:19:12.184Z,8
2017-04-30T03:19:52.679Z,4
2017-04-30T03:20:33.125Z,8
2017-04-30T03:21:13.617Z,8
2017-04-30T03:21:54.116Z,12
2017-04-30T03:22:34.581Z,12
2017-04-30T03:23:15.047Z,12
2017-04-30T03:23:55.542Z,12
2017-04-30T03:24:36.015Z,16
2017-04-30T03:25:16.522Z,16
2017-04-30T03:25:56.958Z,16
2017-04-30T03:26:37.484Z,20
2017-04-30T03:27:17.978Z,20
2017-04-30T03:27:58.463Z,20
2017-04-30T03:28:38.987Z,24
2017-04-30T03:29:19.552Z,28
2017-04-30T03:30:00.050Z,28
2017-04-30T03:30:40.539Z,28
2017-04-30T03:31:20.999Z,36
2017-04-30T03:32:01.476Z,36
2017-04-30T03:32:41.950Z,40
2017-04-30T03:33:22.427Z,44
2017-04-30T03:34:02.921Z,48
2017-04-30T03:34:43.396Z,56
2017-04-30T03:35:23.873Z,56
2017-04-30T03:36:04.363Z,64
2017-04-30T03:36:46.650Z,68
2017-04-30T03:37:27.128Z,72
2017-04-30T03:38:07.661Z,76
2017-04-30T03:38:48.138Z,84
2017-04-30T03:39:28.648Z,88
2017-04-30T03:40:09.122Z,96
2017-04-30T03:40:49.575Z,104
2017-04-30T03:41:30.065Z,116
2017-04-30T03:42:10.565Z,120
2017-04-30T03:42:51.009Z,132
2017-04-30T03:43:31.510Z,136
2017-04-30T03:44:12.050Z,148
2017-04-30T03:44:52.471Z,156
2017-04-30T03:45:32.988Z,164
2017-04-30T03:46:13.477Z,176
2017-04-30T03:46:53.981Z,188
2017-04-30T03:47:34.472Z,200
2017-04-30T03:48:14.915Z,212
2017-04-30T03:48:55.442Z,224
2017-04-30T03:49:35.921Z,236
2017-04-30T03:50:16.355Z,248
2017-04-30T03:50:56.833Z,260
2017-04-30T03:51:37.312Z,276
2017-04-30T03:52:17.798Z,288
2017-04-30T03:52:58.292Z,304
2017-04-30T03:53:38.817Z,320
2017-04-30T03:54:19.321Z,336
2017-04-30T03:54:59.811Z,352
2017-04-30T03:55:40.304Z,368
2017-04-30T03:56:20.785Z,380
2017-04-30T03:57:01.254Z,396
2017-04-30T03:57:41.737Z,416
2017-04-30T03:58:22.223Z,432
2017-04-30T03:59:02.746Z,448
2017-04-30T03:59:43.200Z,468
2017-04-30T04:00:23.755Z,484
2017-04-30T04:01:04.201Z,504
2017-04-30T04:01:44.704Z,520
2017-04-30T04:02:25.178Z,540
2017-04-30T04:03:05.687Z,560
2017-04-30T04:03:46.152Z,580
2017-04-30T04:04:26.664Z,596
2017-04-30T04:05:07.134Z,616
2017-04-30T04:05:47.611Z,640
2017-04-30T04:06:28.123Z,656
2017-04-30T04:07:08.596Z,676
2017-04-30T04:07:49.056Z,696
2017-04-30T04:08:29.509Z,716
2017-04-30T04:09:09.981Z,736
2017-04-30T04:09:50.476Z,756
2017-04-30T04:10:30.977Z,776
2017-04-30T04:11:11.442Z,796
2017-04-30T04:11:51.918Z,816
2017-04-30T04:12:32.379Z,836
2017-04-30T04:13:12.868Z,856
2017-04-30T04:13:53.381Z,876
2017-04-30T04:14:33.816Z,900
2017-04-30T04:15:14.305Z,916
2017-04-30T04:15:54.822Z,940
2017-04-30T04:16:35.284Z,960
2017-04-30T04:17:15.749Z,976
2017-04-30T04:17:56.217Z,996
2017-04-30T04:18:36.707Z,1016
2017-04-30T04:19:17.215Z,1040
2017-04-30T04:19:57.662Z,1060
2017-04-30T04:20:38.162Z,1076
2017-04-30T04:21:18.620Z,1100
2017-04-30T04:21:59.161Z,1116
2017-04-30T04:22:39.615Z,1136
2017-04-30T04:23:20.088Z,1156
2017-04-30T04:24:00.595Z,1176
2017-04-30T04:24:41.042Z,1196
2017-04-30T04:25:21.534Z,1216
2017-04-30T04:26:02.042Z,1236
2017-04-30T04:26:42.475Z,1256
2017-04-30T04:27:22.969Z,1276
2017-04-30T04:28:03.419Z,1292
2017-04-30T04:28:43.928Z,1312
2017-04-30T04:29:24.406Z,1328
2017-04-30T04:30:04.875Z,1348
2017-04-30T04:30:45.383Z,1364
2017-04-30T04:31:25.834Z,1384
2017-04-30T04:32:06.299Z,1400
2017-04-30T04:32:46.772Z,1416
2017-04-30T04:33:27.274Z,1436
2017-04-30T04:34:07.740Z,1452
2017-04-30T04:34:48.172Z,1468
2017-04-30T04:35:28.656Z,1484
2017-04-30T04:36:09.129Z,1500
2017-04-30T04:36:49.630Z,1516
2017-04-30T04:37:30.064Z,1536
2017-04-30T04:38:10.584Z,1556
2017-04-30T04:38:51.095Z,1572
2017-04-30T04:39:31.591Z,1588
2017-04-30T04:40:12.081Z,1604
2017-04-30T04:40:52.570Z,1616
2017-04-30T04:41:33.054Z,1636
2017-04-30T04:42:13.535Z,1652
2017-04-30T04:42:54.060Z,1668
2017-04-30T04:43:34.552Z,1684
2017-04-30T04:44:15.022Z,1700
2017-04-30T04:44:55.516Z,1712
2017-04-30T04:45:35.989Z,1728
2017-04-30T04:46:16.453Z,1744
2017-04-30T04:46:56.959Z,1760
2017-04-30T04:47:37.409Z,1772
2017-04-30T04:48:17.892Z,1784
2017-04-30T04:48:58.415Z,1800
2017-04-30T04:49:38.877Z,1812
2017-04-30T04:50:19.351Z,1828
2017-04-30T04:50:59.847Z,1840
2017-04-30T04:51:40.323Z,1856
2017-04-30T04:52:20.818Z,1864
2017-04-30T04:53:01.283Z,1880
2017-04-30T04:53:41.776Z,1892
2017-04-30T04:54:22.231Z,1904
2017-04-30T04:55:02.719Z,1920
2017-04-30T04:55:43.173Z,1932
2017-04-30T04:56:23.668Z,1944
2017-04-30T04:57:04.135Z,1956
2017-04-30T04:57:44.629Z,1968
2017-04-30T04:58:25.122Z,1984
2017-04-30T04:59:05.619Z,1996
2017-04-30T04:59:46.059Z,2004
2017-04-30T05:00:26.554Z,2020
2017-04-30T05:01:07.034Z,2028
2017-04-30T05:01:47.511Z,2040
2017-04-30T05:02:28.003Z,2048
2017-04-30T05:03:08.479Z,2060
2017-04-30T05:03:48.944Z,2072
2017-04-30T05:04:29.425Z,2080
2017-04-30T05:05:09.892Z,2092
2017-04-30T05:05:50.402Z,2104
2017-04-30T05:06:30.889Z,2116
2017-04-30T05:07:11.379Z,2124
2017-04-30T05:07:51.872Z,2132
2017-04-30T05:08:32.338Z,2144
2017-04-30T05:09:12.838Z,2156
2017-04-30T05:09:53.306Z,2164
2017-04-30T05:10:33.772Z,2176
2017-04-30T05:11:14.300Z,2184
2017-04-30T05:11:54.788Z,2196
2017-04-30T05:12:35.270Z,2204
2017-04-30T05:13:15.733Z,2216
2017-04-30T05:13:56.235Z,2224
2017-04-30T05:14:36.699Z,2236
2017-04-30T05:15:17.176Z,2244
2017-04-30T05:15:57.665Z,2256
2017-04-30T05:16:38.136Z,2264
2017-04-30T05:17:18.628Z,2268
2017-04-30T05:17:59.162Z,2284
2017-04-30T05:18:39.619Z,2288
2017-04-30T05:19:20.097Z,2300
2017-04-30T05:20:00.605Z,2304
2017-04-30T05:20:41.093Z,2316
2017-04-30T05:21:21.561Z,2328
2017-04-30T05:22:02.055Z,2332
2017-04-30T05:22:42.552Z,2340
2017-04-30T05:23:23.043Z,2348
2017-04-30T05:24:03.520Z,2352
2017-04-30T05:24:44.068Z,2364
2017-04-30T05:25:24.584Z,2372
2017-04-30T05:26:05.055Z,2380
2017-04-30T05:26:45.512Z,2388
2017-04-30T05:27:25.976Z,2396
2017-04-30T05:28:06.462Z,2408
2017-04-30T05:28:46.932Z,2412
2017-04-30T05:29:27.466Z,2420
2017-04-30T05:30:07.953Z,2428
2017-04-30T05:30:48.425Z,2436
2017-04-30T05:31:28.964Z,2444
2017-04-30T05:32:09.428Z,2452
2017-04-30T05:32:49.900Z,2456
2017-04-30T05:33:30.362Z,2468
2017-04-30T05:34:10.879Z,2476
2017-04-30T05:34:51.347Z,2484
2017-04-30T05:37:05.706Z,2504
2017-04-30T05:37:46.201Z,2508
2017-04-30T05:38:26.696Z,2516
2017-04-30T05:39:07.200Z,2524
2017-04-30T05:39:47.694Z,2528
2017-04-30T05:40:28.183Z,2536
2017-04-30T05:41:08.700Z,2544
2017-04-30T05:41:49.200Z,2548
2017-04-30T05:42:29.697Z,2556
2017-04-30T05:43:10.162Z,2560
2017-04-30T05:43:50.636Z,2568
2017-04-30T05:44:31.121Z,2572
2017-04-30T05:45:11.598Z,2580
2017-04-30T05:45:52.094Z,2588
2017-04-30T05:46:32.563Z,2596
2017-04-30T05:49:01.891Z,2616
2017-04-30T05:49:42.353Z,2620
2017-04-30T05:50:22.868Z,2628
2017-04-30T05:51:03.365Z,2628
2017-04-30T05:51:43.837Z,2636
2017-04-30T05:52:24.299Z,2644
2017-04-30T05:53:04.792Z,2648
2017-04-30T05:55:23.011Z,2664
2017-04-30T05:56:03.495Z,2664
2017-04-30T05:56:43.963Z,2672
2017-04-30T05:57:24.447Z,2672
2017-04-30T05:58:04.924Z,2680
2017-04-30T05:58:45.450Z,2680
2017-04-30T05:59:25.928Z,2684
2017-04-30T06:00:06.401Z,2688
2017-04-30T06:00:46.919Z,2696
2017-04-30T06:01:27.385Z,2700
2017-04-30T06:02:07.872Z,2704
2017-04-30T06:02:48.374Z,2708
2017-04-30T06:03:28.876Z,2712
2017-04-30T06:04:09.388Z,2716
2017-04-30T06:04:49.864Z,2720
2017-04-30T06:05:30.360Z,2716
2017-04-30T06:06:10.865Z,2720
2017-04-30T06:06:51.342Z,2724
2017-04-30T06:07:31.843Z,2724
2017-04-30T06:08:12.327Z,2728
2017-04-30T06:08:52.785Z,2732
2017-04-30T06:09:33.255Z,2732
2017-04-30T06:10:13.745Z,2732
2017-04-30T06:10:54.211Z,2736
2017-04-30T06:11:34.696Z,2740
2017-04-30T06:12:15.174Z,2736
2017-04-30T06:12:55.656Z,2736
2017-04-30T06:13:36.105Z,2740
2017-04-30T06:14:16.629Z,2744
2017-04-30T06:14:57.124Z,2744
2017-04-30T06:15:37.627Z,2748
2017-04-30T06:16:18.107Z,2752
2017-04-30T06:16:58.601Z,2752
2017-04-30T06:17:39.074Z,2756
2017-04-30T06:18:19.561Z,2760
2017-04-30T06:19:00.056Z,2760
2017-04-30T06:19:40.559Z,2764
2017-04-30T06:20:21.051Z,2764
2017-04-30T06:21:01.526Z,2768
2017-04-30T06:21:41.997Z,2776
2017-04-30T06:22:25.043Z,2776
2017-04-30T06:23:05.526Z,2776
2017-04-30T06:23:46.004Z,2780
2017-04-30T06:24:26.484Z,2780
2017-04-30T06:25:06.973Z,2780
2017-04-30T06:25:47.521Z,2784
2017-04-30T06:26:27.980Z,2788
2017-04-30T06:27:08.462Z,2792
2017-04-30T06:27:48.936Z,2788
2017-04-30T06:28:29.431Z,2788
2017-04-30T06:29:09.942Z,2792
2017-04-30T06:29:50.427Z,2792
2017-04-30T06:30:30.908Z,2788
2017-04-30T06:31:11.356Z,2776
2017-04-30T06:31:51.847Z,2792
2017-04-30T06:32:32.359Z,2788
2017-04-30T06:33:12.867Z,2792
2017-04-30T06:33:53.353Z,2808
2017-04-30T06:34:33.805Z,2808
2017-04-30T06:35:14.341Z,2812
2017-04-30T06:35:54.807Z,2812
2017-04-30T06:36:35.294Z,2816
2017-04-30T06:37:15.760Z,2824
2017-04-30T06:37:56.255Z,2824
2017-04-30T06:38:36.761Z,2824
2017-04-30T06:39:17.222Z,2824
2017-04-30T06:39:57.718Z,2828
2017-04-30T06:40:38.217Z,2828
2017-04-30T06:41:18.686Z,2828
2017-04-30T06:41:59.179Z,2828
2017-04-30T06:42:39.643Z,2824
2017-04-30T06:44:38.673Z,2828
2017-04-30T06:45:18.284Z,2828
2017-04-30T06:45:58.798Z,2836
2017-04-30T06:46:39.295Z,2836
2017-04-30T06:47:19.766Z,2836
2017-04-30T06:48:00.264Z,2840
2017-04-30T06:48:40.750Z,2844
2017-04-30T06:49:21.237Z,2848
2017-04-30T06:50:01.720Z,2848
2017-04-30T06:50:42.206Z,2852
2017-04-30T06:51:22.716Z,2852
2017-04-30T06:52:03.198Z,2844
2017-04-30T06:52:43.641Z,2848
2017-04-30T06:53:24.180Z,2856
2017-04-30T06:54:04.626Z,2856
2017-04-30T06:54:45.105Z,2856
2017-04-30T06:55:25.593Z,2856
2017-04-30T06:56:06.074Z,2856
2017-04-30T06:56:46.550Z,2856
2017-04-30T06:57:27.057Z,2860
2017-04-30T06:58:07.518Z,2864
2017-04-30T06:58:48.006Z,2860
2017-04-30T06:59:28.478Z,2856
2017-04-30T07:00:09.000Z,2856
2017-04-30T07:00:49.487Z,2856
2017-04-30T07:01:29.981Z,2860
2017-04-30T07:02:10.446Z,2856
2017-04-30T07:02:50.937Z,2856
2017-04-30T07:03:31.396Z,2860
2017-04-30T07:04:11.869Z,2860
2017-04-30T07:04:52.310Z,2856
2017-04-30T07:05:32.795Z,2860
2017-04-30T07:06:13.255Z,2856
2017-04-30T07:06:53.744Z,2860
2017-04-30T07:07:34.217Z,2864
2017-04-30T07:08:14.718Z,2864
2017-04-30T07:08:55.172Z,2864
2017-04-30T07:09:35.623Z,2864
2017-04-30T07:10:16.135Z,2872
2017-04-30T07:10:56.629Z,2872
2017-04-30T07:11:37.092Z,2872
2017-04-30T07:12:17.584Z,2868
2017-04-30T07:12:58.095Z,2868
2017-04-30T07:13:38.541Z,2868
2017-04-30T07:14:19.026Z,2868
2017-04-30T07:14:59.481Z,2872
2017-04-30T07:15:39.943Z,2872
2017-04-30T07:16:20.477Z,2876
2017-04-30T07:17:00.967Z,2876
2017-04-30T07:17:41.440Z,2876
2017-04-30T07:18:21.925Z,2876
2017-04-30T07:19:02.463Z,2880
2017-04-30T07:19:42.881Z,2884
2017-04-30T07:20:23.371Z,2888
2017-04-30T07:21:03.882Z,2884
2017-04-30T07:21:44.394Z,2888
2017-04-30T07:22:24.924Z,2892
2017-04-30T07:23:05.545Z,2892
2017-04-30T07:23:46.016Z,2888
2017-04-30T07:24:26.520Z,2884
2017-04-30T07:25:06.978Z,2892
2017-04-30T07:25:47.454Z,2896
2017-04-30T07:26:27.963Z,2900
2017-04-30T07:27:15.050Z,2904
2017-04-30T07:27:55.549Z,2904
2017-04-30T07:28:36.027Z,2904
2017-04-30T07:29:16.479Z,2900
2017-04-30T07:29:57.003Z,2904
2017-04-30T07:30:37.478Z,2904
2017-04-30T07:31:17.967Z,2908
2017-04-30T07:31:58.521Z,2904
2017-04-30T07:32:39.027Z,2904
2017-04-30T07:33:19.460Z,2908
2017-04-30T07:33:59.962Z,2916
2017-04-30T07:34:40.453Z,2920
2017-04-30T07:35:20.946Z,2920
2017-04-30T07:36:01.436Z,2920
2017-04-30T07:36:41.894Z,2916
2017-04-30T07:37:22.347Z,2912
2017-04-30T07:38:02.859Z,2920
2017-04-30T07:38:43.369Z,2920
2017-04-30T07:39:23.844Z,2920
2017-04-30T07:40:04.333Z,2924
2017-04-30T07:40:44.793Z,2924
2017-04-30T07:41:25.286Z,2924
2017-04-30T07:42:05.853Z,2928
2017-04-30T07:42:46.346Z,2932
2017-04-30T07:43:26.837Z,2932
2017-04-30T07:44:07.307Z,2940
2017-04-30T07:44:47.778Z,2940
2017-04-30T07:45:28.257Z,2944
2017-04-30T07:46:08.738Z,2940
2017-04-30T07:46:49.231Z,2936
2017-04-30T07:47:29.755Z,2932
2017-04-30T07:48:10.210Z,2936
2017-04-30T07:48:50.694Z,2940
2017-04-30T07:49:31.193Z,2936
2017-04-30T07:50:11.656Z,2940
2017-04-30T07:50:52.115Z,2940
2017-04-30T07:51:32.591Z,2940
2017-04-30T07:52:13.058Z,2944
2017-04-30T07:52:53.565Z,2952
2017-04-30T07:53:34.067Z,2956
2017-04-30T07:54:14.549Z,2960
2017-04-30T07:54:55.036Z,2960
2017-04-30T07:55:35.498Z,2956
2017-04-30T07:56:16.002Z,2960
2017-04-30T07:56:56.494Z,2964
2017-04-30T07:57:36.969Z,2960
2017-04-30T07:58:17.446Z,2960
2017-04-30T07:58:57.957Z,2972
2017-04-30T07:59:38.426Z,2972
2017-04-30T08:00:18.923Z,2968
2017-04-30T08:00:59.405Z,2964
2017-04-30T08:01:39.881Z,2976
2017-04-30T08:02:20.359Z,2984
2017-04-30T08:03:00.868Z,2988
2017-04-30T08:03:41.357Z,2992
2017-04-30T08:04:21.852Z,3000
2017-04-30T08:05:02.362Z,3004
2017-04-30T08:05:42.872Z,3004
2017-04-30T08:06:23.340Z,3016
2017-04-30T08:07:03.786Z,3020
2017-04-30T08:07:44.319Z,3028
2017-04-30T08:08:24.784Z,3060
2017-04-30T08:09:05.271Z,3188
2017-04-30T08:09:45.782Z,3112
2017-04-30T08:10:26.260Z,3032
2017-04-30T08:11:06.763Z,3020
2017-04-30T08:11:47.258Z,3024
2017-04-30T08:12:27.749Z,3040
2017-04-30T08:13:08.254Z,3040
2017-04-30T08:13:48.747Z,3036
2017-04-30T08:14:29.242Z,3028
2017-04-30T08:15:09.733Z,3028
2017-04-30T08:15:50.197Z,3024
2017-04-30T08:16:30.643Z,3028
2017-04-30T08:17:11.128Z,3036
2017-04-30T08:17:51.640Z,3048
2017-04-30T08:18:32.106Z,3056
2017-04-30T08:19:12.611Z,3060
2017-04-30T08:19:53.148Z,3068
2017-04-30T08:20:33.640Z,3052
2017-04-30T08:21:14.252Z,3048
2017-04-30T08:21:54.742Z,3052
2017-04-30T08:22:35.387Z,3060
2017-04-30T08:23:15.913Z,3084
2017-04-30T08:23:56.412Z,3220
2017-04-30T08:24:36.857Z,3288
2017-04-30T08:25:17.310Z,3248
2017-04-30T08:25:57.790Z,3180
2017-04-30T08:26:38.284Z,3140
2017-04-30T08:27:18.778Z,3112
2017-04-30T08:27:59.289Z,3088
2017-04-30T08:28:39.774Z,3076
2017-04-30T08:29:20.269Z,3084
2017-04-30T08:30:00.722Z,3092
2017-04-30T08:30:41.244Z,3096
2017-04-30T08:31:21.734Z,3100
2017-04-30T08:32:02.208Z,3104
2017-04-30T08:32:42.674Z,3116
2017-04-30T08:33:23.164Z,3144
2017-04-30T08:34:03.654Z,3160
2017-04-30T08:34:44.203Z,3144
2017-04-30T08:35:24.698Z,3196
2017-04-30T08:36:05.184Z,3300
2017-04-30T08:36:45.658Z,3328
2017-04-30T08:37:26.152Z,3376
2017-04-30T08:38:06.646Z,3340
2017-04-30T08:38:47.127Z,3288
2017-04-30T08:39:27.633Z,3276
2017-04-30T08:40:08.102Z,3272
2017-04-30T08:40:48.571Z,3276
2017-04-30T08:41:29.079Z,3280
2017-04-30T08:42:09.546Z,3280
2017-04-30T08:42:50.020Z,3340
2017-04-30T08:43:30.530Z,3376
2017-04-30T08:44:11.014Z,3412
2017-04-30T08:44:51.490Z,3428
2017-04-30T08:45:31.970Z,3088
2017-04-30T08:46:12.458Z,3212
2017-04-30T08:46:52.953Z,3504
2017-04-30T08:47:33.426Z,3552
2017-04-30T08:48:13.911Z,3716
2017-04-30T08:48:54.430Z,3592
2017-04-30T08:49:34.891Z,3536
2017-04-30T08:50:15.391Z,3544
2017-04-30T08:50:55.860Z,3708
2017-04-30T08:51:36.350Z,3592
2017-04-30T08:52:16.841Z,2928
2017-04-30T08:52:57.337Z,3592
2017-04-30T08:53:37.831Z,3668
2017-04-30T08:54:18.276Z,3648
2017-04-30T08:54:58.769Z,3604
2017-04-30T08:55:39.253Z,3600
2017-04-30T08:56:19.751Z,3604
2017-04-30T08:57:00.295Z,3600
2017-04-30T08:57:40.769Z,3596
2017-04-30T08:58:21.347Z,3616
2017-04-30T08:59:01.782Z,3616
2017-04-30T08:59:42.278Z,3592
2017-04-30T09:00:22.777Z,3604
2017-04-30T09:01:03.239Z,3612
2017-04-30T09:01:43.700Z,3676
2017-04-30T09:02:24.216Z,3652
2017-04-30T09:03:04.708Z,3744
2017-04-30T09:03:45.204Z,3892
2017-04-30T09:04:25.691Z,3828
2017-04-30T09:05:06.201Z,3704
2017-04-30T09:05:46.680Z,3636
2017-04-30T09:06:27.176Z,3600
2017-04-30T09:07:07.668Z,3604
2017-04-30T09:07:48.153Z,3632
2017-04-30T09:08:28.635Z,3648
2017-04-30T09:09:09.164Z,3636
2017-04-30T09:09:49.655Z,3644
2017-04-30T09:10:30.287Z,3628
2017-04-30T09:11:10.603Z,3624
2017-04-30T09:11:51.117Z,3624
2017-04-30T09:12:31.641Z,3628
2017-04-30T09:13:12.134Z,3624
2017-04-30T09:13:52.646Z,3648
2017-04-30T09:14:33.128Z,3676
2017-04-30T09:15:13.618Z,3712
2017-04-30T09:15:54.094Z,3724
2017-04-30T09:16:34.591Z,3724
2017-04-30T09:17:15.055Z,3916
2017-04-30T09:17:55.538Z,3872
2017-04-30T09:18:35.995Z,3804
2017-04-30T09:19:16.506Z,3764
2017-04-30T09:19:56.980Z,3740
2017-04-30T09:20:37.456Z,3712
2017-04-30T09:21:17.962Z,3724
2017-04-30T09:21:58.439Z,3800
2017-04-30T09:22:38.894Z,3828
2017-04-30T09:23:19.393Z,3568
2017-04-30T09:23:59.881Z,3784
2017-04-30T09:24:40.373Z,3796
2017-04-30T09:25:20.896Z,3896
2017-04-30T09:26:01.365Z,3880
2017-04-30T09:26:41.799Z,3856
2017-04-30T09:27:22.260Z,3824
2017-04-30T09:28:02.752Z,3792
2017-04-30T09:28:43.239Z,3960
2017-04-30T09:29:23.701Z,3976
2017-04-30T09:30:04.237Z,3768
2017-04-30T09:30:44.707Z,3724
2017-04-30T09:31:25.183Z,3772